Time;durP1;ratioP1;P1;durP2;ratioP2;P2;SDS_P1;SDS_P2;PMS_P1;PMS_P2;Temp;Humidity;BMP_temperature;BMP_pressure;BME280_temperature;BME280_humidity;BME280_pressure;Samples;Min_cycle;Max_cycle;Signal;HPM_P1;HPM_P2
2023/10/20 00:00:41;;;;;;;;;;;;;;;11.32;100.00;94863.66;5114088;28;976;-58
2023/10/20 00:03:08;;;;;;;;;;;;;;;11.43;100.00;94859.78;5113778;28;1087;-57
2023/10/20 00:05:34;;;;;;;;;;;;;;;11.33;100.00;94858.16;5114029;28;1032;-58
2023/10/20 00:08:00;;;;;;;;;;;;;;;11.44;100.00;94856.09;5125750;28;1986;-58
2023/10/20 00:10:27;;;;;;;;;;;;;;;11.41;100.00;94854.59;5134532;28;945;-58
2023/10/20 00:12:53;;;;;;;;;;;;;;;11.38;100.00;94846.91;5116089;28;1306;-58
2023/10/20 00:15:20;;;;;;;;;;;;;;;11.47;100.00;94848.53;5134430;28;989;-58
2023/10/20 00:17:46;;;;;;;;;;;;;;;11.47;100.00;94842.38;5134491;28;1020;-58
2023/10/20 00:20:12;;;;;;;;;;;;;;;11.51;100.00;94846.34;5134114;28;1028;-58
2023/10/20 00:22:39;;;;;;;;;;;;;;;11.51;100.00;94841.00;5134122;28;1100;-58
2023/10/20 00:25:05;;;;;;;;;;;;;;;11.60;100.00;94836.44;5134216;28;1286;-58
2023/10/20 00:27:31;;;;;;;;;;;;;;;11.47;100.00;94831.66;5133957;28;1910;-58
2023/10/20 00:29:57;;;;;;;;;;;;;;;11.45;100.00;94831.00;5134368;28;1044;-58
2023/10/20 00:32:23;;;;;;;;;;;;;;;11.50;100.00;94832.16;5134175;28;973;-58
2023/10/20 00:34:48;;;;;;;;;;;;;;;11.45;100.00;94829.16;5134015;28;1049;-58
2023/10/20 00:37:14;;;;;;;;;;;;;;;11.42;100.00;94815.28;5134096;28;1035;-58
2023/10/20 00:39:40;;;;;;;;;;;;;;;11.35;100.00;94823.19;5134113;28;956;-58
2023/10/20 00:42:07;;;;;;;;;;;;;;;11.49;100.00;94814.41;5133997;28;977;-58
2023/10/20 00:44:33;;;;;;;;;;;;;;;11.48;100.00;94820.78;5134118;28;996;-58
2023/10/20 00:46:59;;;;;;;;;;;;;;;11.45;100.00;94820.28;5134105;28;2012;-58
2023/10/20 00:49:25;;;;;;;;;;;;;;;11.49;100.00;94819.75;5133939;28;1289;-58
2023/10/20 00:51:52;;;;;;;;;;;;;;;11.45;100.00;94815.75;5133998;28;961;-58
2023/10/20 00:54:20;;;;;;;;;;;;;;;11.57;100.00;94818.06;5133798;28;1180;-58
2023/10/20 00:56:47;;;;;;;;;;;;;;;11.55;100.00;94817.41;5129147;28;1215;-58
2023/10/20 00:59:13;;;;;;;;;;;;;;;11.51;100.00;94809.72;5113511;28;1025;-58
2023/10/20 01:01:39;;;;;;;;;;;;;;;11.51;100.00;94815.09;5113492;28;1028;-58
2023/10/20 01:04:05;;;;;;;;;;;;;;;11.54;100.00;94821.91;5114805;28;1028;-58
2023/10/20 01:06:31;;;;;;;;;;;;;;;11.47;100.00;94816.41;5116895;28;1984;-58
2023/10/20 01:08:58;;;;;;;;;;;;;;;11.40;100.00;94809.25;5078783;28;1218;-58
2023/10/20 01:11:24;;;;;;;;;;;;;;;11.47;100.00;94800.34;5096394;28;1056;-58
2023/10/20 01:13:50;;;;;;;;;;;;;;;11.58;100.00;94811.69;5096696;28;1209;-58
2023/10/20 01:16:16;;;;;;;;;;;;;;;11.69;100.00;94803.28;5096229;28;1037;-58
2023/10/20 01:18:43;;;;;;;;;;;;;;;11.70;100.00;94810.28;5096247;28;1021;-58
2023/10/20 01:21:09;;;;;;;;;;;;;;;11.63;100.00;94803.94;5096386;28;1056;-58
2023/10/20 01:23:35;;;;;;;;;;;;;;;11.59;100.00;94802.63;5096249;28;1052;-58
2023/10/20 01:26:02;;;;;;;;;;;;;;;11.61;100.00;94800.63;5096159;28;1914;-58
2023/10/20 01:28:28;;;;;;;;;;;;;;;11.68;100.00;94791.69;5096305;28;1030;-58
2023/10/20 01:30:56;;;;;;;;;;;;;;;11.53;100.00;94799.69;5096256;28;986;-58
2023/10/20 01:33:22;;;;;;;;;;;;;;;11.50;100.00;94796.50;5096125;28;956;-58
2023/10/20 01:35:48;;;;;;;;;;;;;;;11.45;100.00;94793.53;5078036;28;1036;-58
2023/10/20 01:38:14;;;;;;;;;;;;;;;11.50;100.00;94800.00;5095804;28;1100;-58
2023/10/20 01:40:39;;;;;;;;;;;;;;;11.50;100.00;94799.19;5095752;28;1099;-58
2023/10/20 01:43:05;;;;;;;;;;;;;;;11.51;100.00;94801.69;5096102;28;1056;-58
2023/10/20 01:45:31;;;;;;;;;;;;;;;11.47;100.00;94804.88;5095995;28;993;-58
2023/10/20 01:47:57;;;;;;;;;;;;;;;11.40;100.00;94799.41;5095841;28;1898;-58
2023/10/20 01:50:24;;;;;;;;;;;;;;;11.32;100.00;94797.59;5095911;28;966;-58
2023/10/20 01:52:50;;;;;;;;;;;;;;;11.38;100.00;94789.88;5095662;28;1037;-58
2023/10/20 01:55:16;;;;;;;;;;;;;;;11.33;100.00;94798.44;5095555;28;966;-58
2023/10/20 01:57:41;;;;;;;;;;;;;;;11.30;100.00;94796.91;5107772;28;1219;-58
2023/10/20 02:00:10;;;;;;;;;;;;;;;11.23;100.00;94790.63;5115909;28;1103;-58
2023/10/20 02:02:36;;;;;;;;;;;;;;;11.06;100.00;94786.31;5115825;28;1040;-58
2023/10/20 02:05:03;;;;;;;;;;;;;;;11.13;100.00;94780.13;5115953;28;1044;-58
2023/10/20 02:07:29;;;;;;;;;;;;;;;11.21;100.00;94779.25;5123449;27;1956;-56
2023/10/20 02:09:55;;;;;;;;;;;;;;;11.25;100.00;94777.91;5136282;27;999;-58
2023/10/20 02:12:22;;;;;;;;;;;;;;;11.27;100.00;94781.22;5136256;27;1020;-58
2023/10/20 02:14:48;;;;;;;;;;;;;;;11.31;100.00;94771.00;5136428;27;961;-59
2023/10/20 02:17:14;;;;;;;;;;;;;;;11.02;100.00;94766.28;5136387;27;961;-59
2023/10/20 02:19:40;;;;;;;;;;;;;;;11.00;100.00;94789.69;5118049;27;977;-58
2023/10/20 02:22:06;;;;;;;;;;;;;;;10.84;100.00;94786.06;5136176;27;1052;-58
2023/10/20 02:24:32;;;;;;;;;;;;;;;11.05;100.00;94782.00;5135928;27;972;-58
2023/10/20 02:26:58;;;;;;;;;;;;;;;10.98;100.00;94778.34;5135874;27;1930;-58
2023/10/20 02:29:24;;;;;;;;;;;;;;;10.76;100.00;94775.41;5135818;27;1044;-58
2023/10/20 02:31:50;;;;;;;;;;;;;;;10.71;100.00;94793.78;5135808;27;1016;-58
2023/10/20 02:34:16;;;;;;;;;;;;;;;10.72;100.00;94796.28;5135712;27;1024;-57
2023/10/20 02:36:42;;;;;;;;;;;;;;;10.74;100.00;94783.59;5136093;27;1045;-58
2023/10/20 02:39:08;;;;;;;;;;;;;;;10.53;100.00;94776.13;5135987;27;969;-58
2023/10/20 02:41:34;;;;;;;;;;;;;;;10.63;100.00;94775.94;5135532;27;1007;-58
2023/10/20 02:44:00;;;;;;;;;;;;;;;10.70;100.00;94776.91;5135777;27;1014;-58
2023/10/20 02:46:26;;;;;;;;;;;;;;;10.58;100.00;94772.91;5135579;27;1902;-58
2023/10/20 02:48:52;;;;;;;;;;;;;;;10.50;100.00;94776.44;5135851;27;1032;-58
2023/10/20 02:51:18;;;;;;;;;;;;;;;10.44;100.00;94773.63;5135708;27;1029;-57
2023/10/20 02:53:44;;;;;;;;;;;;;;;10.32;100.00;94767.78;5135404;27;1073;-58
2023/10/20 02:56:10;;;;;;;;;;;;;;;10.43;100.00;94778.13;5135172;27;1052;-58
2023/10/20 02:58:36;;;;;;;;;;;;;;;10.42;100.00;94772.97;5115139;27;1115;-58
2023/10/20 03:01:05;;;;;;;;;;;;;;;10.20;100.00;94769.94;5115054;28;1011;-58
2023/10/20 03:03:31;;;;;;;;;;;;;;;10.07;100.00;94762.44;5114748;28;1083;-58
2023/10/20 03:05:57;;;;;;;;;;;;;;;10.22;100.00;94754.56;5114682;28;1910;-58
2023/10/20 03:08:23;;;;;;;;;;;;;;;10.40;100.00;94761.63;5099277;28;1193;-58
2023/10/20 03:10:49;;;;;;;;;;;;;;;10.39;100.00;94765.28;5094422;28;1042;-57
2023/10/20 03:13:16;;;;;;;;;;;;;;;10.26;100.00;94761.28;5094320;28;1014;-58
2023/10/20 03:15:42;;;;;;;;;;;;;;;10.12;100.00;94776.13;5094252;28;984;-58
2023/10/20 03:18:08;;;;;;;;;;;;;;;9.92;100.00;94775.63;5094080;28;1177;-58
2023/10/20 03:20:35;;;;;;;;;;;;;;;10.02;100.00;94777.31;5094222;28;1385;-58
2023/10/20 03:23:03;;;;;;;;;;;;;;;10.06;100.00;94773.28;5094222;28;1023;-58
2023/10/20 03:25:31;;;;;;;;;;;;;;;10.18;100.00;94773.78;5093768;28;922;-58
2023/10/20 03:27:57;;;;;;;;;;;;;;;10.21;100.00;94770.78;5093453;28;1934;-58
2023/10/20 03:30:23;;;;;;;;;;;;;;;10.12;100.00;94778.78;5093745;28;1064;-58
2023/10/20 03:32:50;;;;;;;;;;;;;;;10.03;100.00;94778.97;5093769;28;1033;-58
2023/10/20 03:35:16;;;;;;;;;;;;;;;10.04;100.00;94786.81;5094012;28;1026;-58
2023/10/20 03:37:42;;;;;;;;;;;;;;;10.11;100.00;94794.97;5093526;28;1322;-58
2023/10/20 03:40:13;;;;;;;;;;;;;;;10.10;100.00;94786.13;5093954;28;1046;-58
2023/10/20 03:42:40;;;;;;;;;;;;;;;10.07;100.00;94774.94;5094035;28;969;-57
2023/10/20 03:45:09;;;;;;;;;;;;;;;9.82;100.00;94779.44;5093643;28;1557;-57
2023/10/20 03:47:38;;;;;;;;;;;;;;;9.82;100.00;94774.94;5093679;28;1910;-57
2023/10/20 03:50:16;;;;;;;;;;;;;;;9.83;100.00;94771.28;5093609;28;958;-57
2023/10/20 03:52:45;;;;;;;;;;;;;;;9.74;100.00;94762.41;5093597;28;1064;-58
2023/10/20 03:55:13;;;;;;;;;;;;;;;9.94;100.00;94756.75;5093358;28;1028;-57
2023/10/20 03:57:40;;;;;;;;;;;;;;;10.00;100.00;94750.75;5105145;28;1084;-59
2023/10/20 04:02:52;;;;;;;;;;;;;;;9.78;100.00;94742.41;5113759;28;1052;-58
2023/10/20 04:05:19;;;;;;;;;;;;;;;9.73;100.00;94743.88;5113936;28;990;-57
2023/10/20 04:07:45;;;;;;;;;;;;;;;9.60;100.00;94748.88;5123788;28;1995;-57
2023/10/20 04:10:12;;;;;;;;;;;;;;;9.49;100.00;94748.22;5134233;28;1039;-56
2023/10/20 04:12:44;;;;;;;;;;;;;;;9.64;100.00;94740.41;5134242;28;1023;-56
2023/10/20 04:15:19;;;;;;;;;;;;;;;9.74;100.00;94737.56;5134154;28;949;-56
2023/10/20 04:17:51;;;;;;;;;;;;;;;9.82;100.00;94740.22;5134045;28;1072;-56
2023/10/20 04:20:21;;;;;;;;;;;;;;;9.80;100.00;94758.25;5134212;28;1044;-56
2023/10/20 04:22:50;;;;;;;;;;;;;;;9.70;100.00;94758.41;5134446;28;1052;-57
2023/10/20 04:25:20;;;;;;;;;;;;;;;9.76;100.00;94754.25;5134154;28;1024;-57
2023/10/20 04:28:20;;;;;;;;;;;;;;;9.56;100.00;94741.22;5134015;28;1986;-57
2023/10/20 04:57:52;;;;;;;;;;;;;;;9.45;100.00;94754.88;5125767;27;1100;-56
2023/10/20 05:08:05;;;;;;;;;;;;;;;9.38;100.00;94767.19;5105843;28;1902;-57
2023/10/20 05:10:31;;;;;;;;;;;;;;;9.53;100.00;94768.22;5078620;28;1024;-58
2023/10/20 05:12:57;;;;;;;;;;;;;;;9.42;100.00;94765.88;5096626;28;942;-57
2023/10/20 05:15:23;;;;;;;;;;;;;;;9.62;100.00;94771.75;5096434;28;950;-57
2023/10/20 05:17:50;;;;;;;;;;;;;;;9.80;100.00;94770.78;5096494;28;1023;-57
2023/10/20 05:20:20;;;;;;;;;;;;;;;9.93;100.00;94769.28;5096449;28;1030;-57
2023/10/20 05:22:46;;;;;;;;;;;;;;;10.01;100.00;94764.94;5096506;28;996;-57
2023/10/20 05:25:12;;;;;;;;;;;;;;;10.07;100.00;94777.63;5096337;28;999;-57
2023/10/20 05:27:39;;;;;;;;;;;;;;;10.05;100.00;94771.63;5096111;28;1910;-57
2023/10/20 05:30:05;;;;;;;;;;;;;;;10.29;100.00;94776.94;5078447;28;1048;-57
2023/10/20 05:32:31;;;;;;;;;;;;;;;10.42;100.00;94781.81;5096300;28;958;-58
2023/10/20 05:34:59;;;;;;;;;;;;;;;10.43;100.00;94787.97;5096365;28;953;-58
2023/10/20 05:37:25;;;;;;;;;;;;;;;10.31;100.00;94804.34;5096146;28;956;-58
2023/10/20 05:39:51;;;;;;;;;;;;;;;10.63;99.71;94800.00;5078058;28;1033;-57
2023/10/20 05:42:17;;;;;;;;;;;;;;;10.74;99.55;94804.97;5095809;28;1057;-58
2023/10/20 05:47:41;;;;;;;;;;;;;;;11.32;98.03;94818.16;5050977;28;1910;-58
2023/10/20 05:50:07;;;;;;;;;;;;;;;11.67;97.27;94816.84;5095396;28;1092;-58
2023/10/20 05:52:35;;;;;;;;;;;;;;;12.38;94.21;94810.50;5095841;28;962;-57
2023/10/20 05:55:04;;;;;;;;;;;;;;;13.16;90.22;94819.97;5095774;28;1040;-59
2023/10/20 05:57:30;;;;;;;;;;;;;;;13.34;88.92;94813.44;5106119;28;1111;-58
2023/10/20 05:59:59;;;;;;;;;;;;;;;13.71;87.71;94808.91;5115953;28;1036;-58
2023/10/20 06:02:25;;;;;;;;;;;;;;;14.92;82.07;94814.44;5115800;28;1199;-58
2023/10/20 06:04:51;;;;;;;;;;;;;;;15.78;77.24;94823.06;5116045;28;1003;-58
2023/10/20 06:07:17;;;;;;;;;;;;;;;17.42;70.08;94818.22;5121836;27;1982;-58
2023/10/20 06:09:43;;;;;;;;;;;;;;;18.77;64.64;94822.78;5136364;27;1039;-58
2023/10/20 06:12:10;;;;;;;;;;;;;;;19.83;60.47;94831.00;5118100;27;1857;-58
2023/10/20 06:14:36;;;;;;;;;;;;;;;20.63;57.54;94833.50;5136278;27;1031;-58
2023/10/20 06:17:02;;;;;;;;;;;;;;;20.79;56.54;94839.34;5136270;27;1027;-57
2023/10/20 06:19:29;;;;;;;;;;;;;;;21.34;54.80;94841.81;5136115;27;1019;-58
2023/10/20 06:21:55;;;;;;;;;;;;;;;21.54;53.83;94844.19;5136140;27;816;-58
2023/10/20 06:24:21;;;;;;;;;;;;;;;21.84;53.85;94843.22;5136080;27;1035;-57
2023/10/20 06:26:47;;;;;;;;;;;;;;;22.58;51.86;94854.28;5135979;27;1997;-58
2023/10/20 06:31:54;;;;;;;;;;;;;;;22.75;51.15;94851.59;5135884;27;1024;-58
2023/10/20 06:36:48;;;;;;;;;;;;;;;23.48;49.55;94849.03;5135906;27;1008;-59
2023/10/20 06:39:14;;;;;;;;;;;;;;;22.99;50.64;94867.81;5136019;27;981;-57
2023/10/20 06:41:41;;;;;;;;;;;;;;;22.87;51.20;94858.91;5135753;27;1039;-58
2023/10/20 06:44:08;;;;;;;;;;;;;;;21.86;54.47;94843.81;5117709;27;964;-57
2023/10/20 06:46:35;;;;;;;;;;;;;;;20.62;59.29;94853.59;5135750;27;1906;-58
2023/10/20 06:49:01;;;;;;;;;;;;;;;19.80;62.20;94847.72;5135729;27;960;-58
2023/10/20 06:51:27;;;;;;;;;;;;;;;19.02;66.22;94857.19;5135689;27;1048;-58
2023/10/20 06:53:53;;;;;;;;;;;;;;;18.68;67.33;94860.09;5135611;27;1052;-58
2023/10/20 06:56:19;;;;;;;;;;;;;;;18.27;70.57;94853.28;5134582;27;1084;-59
2023/10/20 06:58:44;;;;;;;;;;;;;;;17.99;72.32;94853.63;5114802;28;1028;-58
2023/10/20 07:01:10;;;;;;;;;;;;;;;17.83;73.85;94852.22;5114154;28;1099;-58
2023/10/20 07:03:36;;;;;;;;;;;;;;;17.93;72.49;94857.19;5114967;28;972;-58
2023/10/20 07:06:07;;;;;;;;;;;;;;;18.07;73.47;94849.84;5114633;28;1909;-58
2023/10/20 07:08:33;;;;;;;;;;;;;;;18.02;74.49;94845.09;5098279;28;1169;-58
2023/10/20 07:11:02;;;;;;;;;;;;;;;18.20;73.31;94846.25;5094227;28;975;-59
2023/10/20 07:13:28;;;;;;;;;;;;;;;18.60;72.14;94862.25;5094378;28;962;-57
2023/10/20 07:15:56;;;;;;;;;;;;;;;18.32;73.96;94861.56;5094171;28;1094;-59
2023/10/20 07:18:23;;;;;;;;;;;;;;;18.34;73.33;94855.94;5076225;28;950;-60
2023/10/20 07:20:49;;;;;;;;;;;;;;;18.67;72.59;94855.75;5094341;28;1004;-54
2023/10/20 07:23:16;;;;;;;;;;;;;;;18.52;75.34;94849.81;5093923;28;1025;-56
2023/10/20 07:25:42;;;;;;;;;;;;;;;18.39;76.71;94855.31;5076021;28;1011;-56
2023/10/20 07:28:09;;;;;;;;;;;;;;;18.69;74.37;94850.13;5093854;28;1907;-56
2023/10/20 07:30:35;;;;;;;;;;;;;;;18.70;75.57;94847.22;5094088;28;1379;-56
2023/10/20 07:33:03;;;;;;;;;;;;;;;18.93;74.86;94848.50;5093812;28;1092;-56
2023/10/20 07:35:29;;;;;;;;;;;;;;;18.87;73.48;94852.91;5093902;28;956;-56
2023/10/20 07:37:55;;;;;;;;;;;;;;;18.90;74.22;94852.50;5094119;28;1059;-56
2023/10/20 07:40:26;;;;;;;;;;;;;;;18.73;74.08;94846.75;5097342;28;2455;-56
2023/10/20 07:42:52;;;;;;;;;;;;;;;18.88;71.85;94856.47;5093716;28;1119;-55
2023/10/20 07:45:18;;;;;;;;;;;;;;;18.79;72.06;94853.16;5093590;28;1084;-55
2023/10/20 07:47:44;;;;;;;;;;;;;;;18.63;73.66;94845.56;5093578;28;1913;-56
2023/10/20 07:50:10;;;;;;;;;;;;;;;18.62;73.29;94850.16;5093563;28;1140;-55
2023/10/20 07:52:37;;;;;;;;;;;;;;;19.01;70.90;94847.41;5093685;28;1063;-55
2023/10/20 07:55:03;;;;;;;;;;;;;;;19.36;71.53;94838.78;5097521;28;2515;-56
2023/10/20 07:57:29;;;;;;;;;;;;;;;19.75;69.62;94842.97;5103839;28;1262;-55
2023/10/20 07:59:55;;;;;;;;;;;;;;;19.86;69.41;94836.81;5114041;28;984;-55
2023/10/20 08:02:22;;;;;;;;;;;;;;;19.60;70.25;94828.94;5114067;28;987;-55
2023/10/20 08:04:50;;;;;;;;;;;;;;;19.64;70.57;94841.81;5113975;28;1019;-55
2023/10/20 08:07:16;;;;;;;;;;;;;;;19.60;68.84;94835.19;5119735;28;1909;-55
2023/10/20 08:09:42;;;;;;;;;;;;;;;19.57;70.20;94832.09;5134569;28;1058;-56
2023/10/20 08:12:08;;;;;;;;;;;;;;;19.53;70.32;94839.03;5134667;27;957;-55
2023/10/20 08:14:34;;;;;;;;;;;;;;;19.73;69.13;94841.53;5138770;27;980;-55
2023/10/20 08:17:03;;;;;;;;;;;;;;;19.93;68.82;94833.19;5127787;27;2800;-56
2023/10/20 08:19:30;;;;;;;;;;;;;;;20.03;67.96;94836.16;5117875;28;957;-63
2023/10/20 08:21:56;;;;;;;;;;;;;;;20.22;67.40;94831.53;5117827;28;1119;-63
2023/10/20 08:24:23;;;;;;;;;;;;;;;20.26;67.04;94828.16;5099597;28;1007;-64
2023/10/20 08:26:49;;;;;;;;;;;;;;;20.47;67.56;94826.00;5118011;28;1909;-64
2023/10/20 08:29:16;;;;;;;;;;;;;;;20.58;67.29;94817.06;5117882;28;1171;-57
2023/10/20 08:31:42;;;;;;;;;;;;;;;20.50;66.46;94814.66;5117648;28;1017;-60
2023/10/20 08:34:09;;;;;;;;;;;;;;;20.70;67.69;94819.84;5117595;28;1099;-63
2023/10/20 08:36:35;;;;;;;;;;;;;;;20.56;67.47;94823.78;5099851;28;961;-61
2023/10/20 08:39:12;;;;;;;;;;;;;;;20.57;67.32;94822.72;5117443;28;1028;-60
2023/10/20 08:41:40;;;;;;;;;;;;;;;20.53;67.08;94819.66;5117556;28;1017;-63
2023/10/20 08:44:06;;;;;;;;;;;;;;;20.83;64.08;94826.94;5117768;28;987;-64
2023/10/20 08:46:33;;;;;;;;;;;;;;;20.88;65.26;94832.50;5117314;28;1902;-63
2023/10/20 08:49:02;;;;;;;;;;;;;;;20.95;65.70;94824.28;5117428;28;980;-59
2023/10/20 08:51:30;;;;;;;;;;;;;;;21.01;66.10;94826.88;5117111;28;977;-61
2023/10/20 08:53:56;;;;;;;;;;;;;;;21.19;64.31;94825.97;5117609;28;1005;-56
2023/10/20 08:56:22;;;;;;;;;;;;;;;21.39;63.10;94830.22;5117255;28;1222;-57
2023/10/20 08:58:48;;;;;;;;;;;;;;;21.47;65.22;94826.34;5117494;28;954;-57
2023/10/20 09:01:15;;;;;;;;;;;;;;;21.68;62.33;94816.75;5117183;28;1040;-60
2023/10/20 09:03:42;;;;;;;;;;;;;;;21.90;64.10;94820.50;5117370;28;1021;-57
2023/10/20 09:06:11;;;;;;;;;;;;;;;22.00;62.60;94823.41;5116961;28;1938;-57
2023/10/20 09:08:38;;;;;;;;;;;;;;;22.02;61.70;94832.19;5116402;27;1150;-57
2023/10/20 09:11:07;;;;;;;;;;;;;;;21.99;62.24;94819.06;5137712;27;1004;-57
2023/10/20 09:13:34;;;;;;;;;;;;;;;21.96;63.52;94818.72;5137366;27;1617;-57
2023/10/20 09:16:01;;;;;;;;;;;;;;;22.16;62.18;94819.13;5137531;27;977;-58
2023/10/20 09:18:27;;;;;;;;;;;;;;;22.17;59.91;94814.50;5136652;27;2327;-57
2023/10/20 09:21:00;;;;;;;;;;;;;;;22.49;62.87;94816.78;5117641;27;2912;-57
2023/10/20 09:23:27;;;;;;;;;;;;;;;22.57;60.17;94808.22;5116872;28;956;-58
2023/10/20 09:25:54;;;;;;;;;;;;;;;22.47;60.67;94810.75;5115894;28;1024;-57
2023/10/20 09:28:20;;;;;;;;;;;;;;;22.70;60.87;94798.91;5116501;28;1918;-58
2023/10/20 09:30:48;;;;;;;;;;;;;;;22.82;60.55;94796.94;5098785;28;992;-57
2023/10/20 09:33:14;;;;;;;;;;;;;;;22.91;60.90;94795.47;5116643;28;1035;-57
2023/10/20 09:35:41;;;;;;;;;;;;;;;23.13;62.82;94784.69;5116433;28;1177;-57
2023/10/20 09:38:10;;;;;;;;;;;;;;;22.95;58.94;94782.16;5116585;28;1003;-57
2023/10/20 09:40:36;;;;;;;;;;;;;;;23.08;60.48;94770.97;5098323;28;1040;-58
2023/10/20 09:43:14;;;;;;;;;;;;;;;23.25;60.33;94767.41;5116679;28;945;-56
2023/10/20 09:45:42;;;;;;;;;;;;;;;23.41;59.05;94765.72;5116348;28;1055;-56
2023/10/20 09:48:15;;;;;;;;;;;;;;;23.60;58.19;94764.38;5116520;28;1914;-56
2023/10/20 09:50:42;;;;;;;;;;;;;;;23.71;60.43;94752.50;5116584;28;1299;-56
2023/10/20 09:53:09;;;;;;;;;;;;;;;23.73;58.91;94754.97;5116479;28;1095;-56
2023/10/20 09:55:35;;;;;;;;;;;;;;;23.65;56.59;94752.69;5116230;28;1412;-56
2023/10/20 09:58:01;;;;;;;;;;;;;;;23.62;58.76;94750.44;5115984;28;1227;-57
2023/10/20 10:00:31;;;;;;;;;;;;;;;23.67;57.15;94743.16;5115561;28;1024;-56
2023/10/20 10:02:58;;;;;;;;;;;;;;;23.64;57.39;94740.94;5116269;28;1055;-57
2023/10/20 10:05:24;;;;;;;;;;;;;;;23.50;57.37;94742.38;5115856;28;1099;-56
2023/10/20 10:08:03;;;;;;;;;;;;;;;23.59;58.35;94733.50;5126281;27;1997;-57
2023/10/20 10:10:29;;;;;;;;;;;;;;;23.45;58.21;94726.78;5136299;27;1020;-57
2023/10/20 10:13:04;;;;;;;;;;;;;;;23.29;59.22;94722.19;5136267;27;1012;-56
2023/10/20 10:15:36;;;;;;;;;;;;;;;23.22;59.28;94718.81;5136494;27;1075;-56
2023/10/20 10:18:07;;;;;;;;;;;;;;;23.02;61.08;94724.75;5136232;27;1027;-56
2023/10/20 10:20:39;;;;;;;;;;;;;;;22.84;60.54;94731.28;5136333;27;982;-56
2023/10/20 10:23:05;;;;;;;;;;;;;;;22.73;60.29;94722.94;5136252;27;965;-56
2023/10/20 10:25:41;;;;;;;;;;;;;;;22.73;60.00;94722.94;5135935;27;952;-56
2023/10/20 10:28:11;;;;;;;;;;;;;;;22.68;60.67;94727.50;5135982;27;1910;-56
2023/10/20 10:30:38;;;;;;;;;;;;;;;22.70;60.20;94720.72;5135989;27;1095;-56
2023/10/20 10:33:06;;;;;;;;;;;;;;;22.72;59.82;94713.09;5136160;27;1024;-55
2023/10/20 10:35:31;;;;;;;;;;;;;;;22.87;59.94;94704.34;5135733;27;965;-56
2023/10/20 10:37:57;;;;;;;;;;;;;;;22.99;59.47;94712.44;5135278;27;1028;-56
2023/10/20 10:40:25;;;;;;;;;;;;;;;23.14;60.33;94709.97;5135930;27;1036;-56
2023/10/20 10:42:52;;;;;;;;;;;;;;;23.17;58.69;94703.19;5136035;27;1055;-56
2023/10/20 10:45:21;;;;;;;;;;;;;;;23.25;58.09;94696.50;5135900;27;979;-56
2023/10/20 10:47:48;;;;;;;;;;;;;;;23.35;58.97;94694.75;5135563;27;1996;-56
2023/10/20 10:50:19;;;;;;;;;;;;;;;23.45;57.81;94680.41;5135576;27;1036;-56
2023/10/20 10:52:46;;;;;;;;;;;;;;;23.46;57.59;94676.59;5135534;27;1032;-55
2023/10/20 10:55:13;;;;;;;;;;;;;;;23.54;57.87;94669.84;5135599;27;973;-56
2023/10/20 10:57:40;;;;;;;;;;;;;;;23.54;57.37;94665.25;5135253;27;1190;-57
2023/10/20 11:00:07;;;;;;;;;;;;;;;23.66;57.05;94667.03;5135486;27;2469;-58
2023/10/20 11:02:33;;;;;;;;;;;;;;;23.77;55.81;94668.75;5117042;27;1071;-57
2023/10/20 11:05:00;;;;;;;;;;;;;;;23.90;56.02;94662.97;5135544;27;953;-57
2023/10/20 11:07:26;;;;;;;;;;;;;;;24.01;57.16;94654.88;5134848;27;1976;-57
2023/10/20 11:09:53;;;;;;;;;;;;;;;24.04;55.06;94654.38;5117028;27;1016;-57
2023/10/20 11:12:20;;;;;;;;;;;;;;;23.94;54.14;94653.19;5135214;27;1020;-56
2023/10/20 11:14:47;;;;;;;;;;;;;;;23.97;55.00;94652.66;5135135;27;1027;-57
2023/10/20 11:17:13;;;;;;;;;;;;;;;24.02;53.78;94654.63;5135317;27;1014;-57
2023/10/20 11:19:39;;;;;;;;;;;;;;;24.15;54.03;94656.13;5135249;27;1079;-57
2023/10/20 11:22:13;;;;;;;;;;;;;;;24.21;53.93;94646.88;5135195;27;993;-57
2023/10/20 11:24:39;;;;;;;;;;;;;;;24.29;54.17;94638.22;5135273;27;977;-57
2023/10/20 11:27:06;;;;;;;;;;;;;;;24.32;52.98;94637.69;5134781;27;1905;-57
2023/10/20 11:29:32;;;;;;;;;;;;;;;24.40;54.68;94633.66;5134801;27;1049;-57
2023/10/20 11:32:00;;;;;;;;;;;;;;;24.44;55.27;94633.97;5134876;27;948;-57
2023/10/20 11:34:27;;;;;;;;;;;;;;;24.45;55.29;94624.69;5134920;27;969;-57
2023/10/20 11:36:53;;;;;;;;;;;;;;;24.45;54.84;94619.22;5135044;27;1015;-57
2023/10/20 11:39:24;;;;;;;;;;;;;;;24.45;53.86;94621.94;5134619;27;1084;-56
2023/10/20 11:41:51;;;;;;;;;;;;;;;24.50;52.85;94611.06;5116845;28;1027;-57
2023/10/20 11:44:17;;;;;;;;;;;;;;;24.59;50.73;94614.19;5134504;27;913;-57
2023/10/20 11:46:44;;;;;;;;;;;;;;;24.61;51.71;94620.22;5134522;27;1905;-57
2023/10/20 11:49:12;;;;;;;;;;;;;;;24.71;51.52;94612.88;5134164;27;964;-57
2023/10/20 11:51:39;;;;;;;;;;;;;;;24.72;51.69;94614.53;5134583;27;1032;-57
2023/10/20 11:54:06;;;;;;;;;;;;;;;24.70;53.01;94616.72;5134464;27;1024;-57
2023/10/20 11:56:32;;;;;;;;;;;;;;;24.74;55.04;94612.38;5131991;27;1052;-57
2023/10/20 11:58:59;;;;;;;;;;;;;;;24.73;55.75;94605.25;5114149;28;1120;-57
2023/10/20 12:01:27;;;;;;;;;;;;;;;24.71;53.92;94612.06;5113709;28;922;-58
2023/10/20 12:03:53;;;;;;;;;;;;;;;24.69;53.48;94609.59;5095693;28;1036;-57
2023/10/20 12:06:19;;;;;;;;;;;;;;;24.59;53.88;94595.88;5095856;28;1909;-58
2023/10/20 12:08:46;;;;;;;;;;;;;;;24.52;52.24;94604.28;5095512;28;1149;-58
2023/10/20 12:11:13;;;;;;;;;;;;;;;24.51;53.94;94601.75;5075711;28;1021;-58
2023/10/20 12:13:39;;;;;;;;;;;;;;;24.51;50.79;94610.84;5093617;28;988;-58
2023/10/20 12:16:05;;;;;;;;;;;;;;;24.65;51.95;94607.66;5093343;28;1033;-58
2023/10/20 12:18:31;;;;;;;;;;;;;;;24.73;55.56;94599.78;5093232;28;933;-58
2023/10/20 12:20:57;;;;;;;;;;;;;;;24.79;50.02;94608.03;5093500;28;1038;-58
2023/10/20 12:23:23;;;;;;;;;;;;;;;24.98;43.69;94622.06;5075263;28;1107;-58
2023/10/20 12:25:49;;;;;;;;;;;;;;;25.06;43.47;94616.94;5093549;28;965;-58
2023/10/20 12:28:16;;;;;;;;;;;;;;;25.05;46.67;94604.34;5093128;28;1981;-58
2023/10/20 12:30:43;;;;;;;;;;;;;;;24.88;45.42;94611.91;5075164;28;2005;-58
2023/10/20 12:33:09;;;;;;;;;;;;;;;24.91;42.33;94609.47;5093010;28;1045;-58
2023/10/20 12:35:35;;;;;;;;;;;;;;;24.92;42.10;94616.56;5075450;28;1004;-58
2023/10/20 12:38:02;;;;;;;;;;;;;;;24.87;44.28;94613.81;5093161;28;1044;-58
2023/10/20 12:40:28;;;;;;;;;;;;;;;24.80;44.49;94606.94;5093079;28;1091;-58
2023/10/20 12:42:54;;;;;;;;;;;;;;;24.73;44.79;94605.25;5093421;28;974;-58
2023/10/20 12:45:20;;;;;;;;;;;;;;;24.71;42.05;94617.53;5093247;28;1041;-58
2023/10/20 12:47:46;;;;;;;;;;;;;;;24.73;42.73;94618.91;5092929;28;1910;-57
2023/10/20 12:50:12;;;;;;;;;;;;;;;24.79;42.43;94611.56;5093329;28;1216;-58
2023/10/20 12:52:38;;;;;;;;;;;;;;;24.81;40.04;94612.13;5092964;28;1029;-58
2023/10/20 12:55:05;;;;;;;;;;;;;;;25.02;39.64;94621.28;5093016;28;1037;-59
2023/10/20 12:57:32;;;;;;;;;;;;;;;25.02;41.39;94612.25;5103458;28;1203;-57
2023/10/20 12:59:58;;;;;;;;;;;;;;;24.90;41.57;94613.28;5114522;28;1048;-58
2023/10/20 13:02:24;;;;;;;;;;;;;;;24.92;40.37;94622.03;5117185;28;1048;-57
2023/10/20 13:04:51;;;;;;;;;;;;;;;24.89;40.71;94616.28;5117306;28;1013;-57
2023/10/20 13:07:17;;;;;;;;;;;;;;;24.92;41.98;94608.38;5122994;27;1902;-57
2023/10/20 13:09:43;;;;;;;;;;;;;;;24.92;41.11;94629.44;5137468;27;1024;-56
2023/10/20 13:12:09;;;;;;;;;;;;;;;24.83;42.16;94622.81;5119317;27;1044;-56
2023/10/20 13:14:36;;;;;;;;;;;;;;;24.87;40.76;94626.66;5137530;27;1044;-57
2023/10/20 13:17:03;;;;;;;;;;;;;;;24.85;41.81;94615.16;5137366;27;1004;-57
2023/10/20 13:19:29;;;;;;;;;;;;;;;24.88;42.39;94609.16;5137262;27;1032;-57
2023/10/20 13:21:55;;;;;;;;;;;;;;;24.81;41.38;94619.50;5137510;27;1048;-58
2023/10/20 13:24:21;;;;;;;;;;;;;;;24.72;41.08;94611.81;5137089;27;1028;-57
2023/10/20 13:26:47;;;;;;;;;;;;;;;24.74;40.28;94623.31;5118990;27;1902;-57
2023/10/20 13:29:13;;;;;;;;;;;;;;;24.74;41.04;94627.94;5137076;27;1050;-57
2023/10/20 13:31:39;;;;;;;;;;;;;;;24.73;41.14;94620.81;5136973;27;1099;-57
2023/10/20 13:34:05;;;;;;;;;;;;;;;24.70;40.76;94627.66;5137004;27;1039;-57
2023/10/20 13:36:33;;;;;;;;;;;;;;;24.67;39.48;94633.63;5137087;27;1045;-57
2023/10/20 13:38:59;;;;;;;;;;;;;;;24.68;40.65;94638.03;5137252;27;1035;-57